Blocksburg, California
Current Conditions -  °F | °C
As of 4:30 AM on Monday 20 Oct 2014 (Local Time) from KFOT Reporting Station
Overcast Overcast  
Wind Chill: 57°   Ceiling: 200
Heat Index: 57°   Visibility: 5mi
Dew Point: 57°   Wind: 3mph
Humidity: 100%   Direction: 10°N
Pressure: 29.84"   Gusts: NA
Location:  40.28°N, 123.64°W
Report Text: KFOT 201130Z AUTO 01003KT 5SM BKN002 OVC028 14/14 A2984 RMK AO1 P0001
Loading
Personal Weather Stations






























Interactive Weather Map
Tropical Storm Tracking
New forecast layout! Learn more

10-Day Weather Forecast

Advertisements
Track Severe Weather on mobile